createdAt,value
2018-09-19T00:00:02.490Z,977.70
2018-09-19T00:01:02.742Z,977.72
2018-09-19T00:02:02.985Z,977.71
2018-09-19T00:03:03.227Z,977.75
2018-09-19T00:04:03.503Z,977.76
2018-09-19T00:05:03.712Z,977.77
2018-09-19T00:06:03.957Z,977.78
2018-09-19T00:07:04.200Z,977.80
2018-09-19T00:08:04.440Z,977.80
2018-09-19T00:09:04.682Z,977.80
2018-09-19T00:10:04.922Z,977.83
2018-09-19T00:11:05.171Z,977.82
2018-09-19T00:12:05.410Z,977.81
2018-09-19T00:13:05.651Z,977.76
2018-09-19T00:14:05.894Z,977.76
2018-09-19T00:15:06.136Z,977.75
2018-09-19T00:16:06.383Z,977.78
2018-09-19T00:17:06.625Z,977.77
2018-09-19T00:18:06.865Z,977.76
2018-09-19T00:19:07.107Z,977.80
2018-09-19T00:20:07.361Z,977.79
2018-09-19T00:21:07.594Z,977.79
2018-09-19T00:22:07.834Z,977.79
2018-09-19T00:23:08.076Z,977.80
2018-09-19T00:24:08.318Z,977.82
2018-09-19T00:25:08.561Z,977.80
2018-09-19T00:26:08.803Z,977.86
2018-09-19T00:27:09.044Z,977.89
2018-09-19T00:28:09.292Z,977.89
2018-09-19T00:29:09.525Z,977.83
2018-09-19T00:30:09.769Z,977.88
2018-09-19T00:31:10.015Z,977.84
2018-09-19T00:32:10.256Z,977.90
2018-09-19T00:33:10.500Z,977.88
2018-09-19T00:34:10.741Z,977.85
2018-09-19T00:35:10.981Z,977.86
2018-09-19T00:36:11.225Z,977.93
2018-09-19T00:37:11.466Z,977.89
2018-09-19T00:38:11.706Z,977.91
2018-09-19T00:39:11.947Z,977.95
2018-09-19T00:40:12.193Z,977.91
2018-09-19T00:41:12.435Z,977.97
2018-09-19T00:42:12.677Z,977.93
2018-09-19T00:43:12.920Z,977.95
2018-09-19T00:44:13.161Z,977.95
2018-09-19T00:45:13.428Z,977.98
2018-09-19T00:46:13.645Z,978.01
2018-09-19T00:47:13.887Z,977.97
2018-09-19T00:48:14.128Z,977.93
2018-09-19T00:49:14.372Z,977.98
2018-09-19T00:50:14.613Z,977.97
2018-09-19T00:51:14.856Z,977.96
2018-09-19T00:52:15.107Z,977.99
2018-09-19T00:53:15.339Z,977.96
2018-09-19T00:54:15.636Z,977.97
2018-09-19T00:55:15.822Z,977.97
2018-09-19T00:56:16.063Z,977.99
2018-09-19T00:57:16.306Z,977.98
2018-09-19T00:58:16.547Z,977.96
2018-09-19T00:59:16.789Z,977.96
2018-09-19T01:00:17.033Z,977.94
2018-09-19T01:01:17.274Z,977.97
2018-09-19T01:02:17.515Z,977.96
2018-09-19T01:03:17.758Z,977.94
2018-09-19T01:04:17.998Z,977.96
2018-09-19T01:05:18.241Z,977.95
2018-09-19T01:06:18.478Z,977.93
2018-09-19T01:07:18.720Z,977.89
2018-09-19T01:08:18.960Z,977.89
2018-09-19T01:09:19.206Z,977.92
2018-09-19T01:10:19.444Z,977.91
2018-09-19T01:11:19.688Z,977.91
2018-09-19T01:12:19.931Z,977.93
2018-09-19T01:13:20.169Z,977.93
2018-09-19T01:14:20.410Z,977.94
2018-09-19T01:15:20.685Z,977.92
2018-09-19T01:16:20.895Z,977.94
2018-09-19T01:17:21.134Z,977.95
2018-09-19T01:18:21.373Z,977.94
2018-09-19T01:19:21.613Z,977.97
2018-09-19T01:20:21.854Z,977.95
2018-09-19T01:21:22.090Z,977.97
2018-09-19T01:22:22.338Z,978.00
2018-09-19T01:23:22.585Z,978.02
2018-09-19T01:24:22.823Z,978.02
2018-09-19T01:25:23.068Z,978.04
2018-09-19T01:26:23.308Z,978.07
2018-09-19T01:27:23.549Z,978.07
2018-09-19T01:28:23.790Z,978.08
2018-09-19T01:29:24.032Z,978.08
2018-09-19T01:30:24.275Z,978.10
2018-09-19T01:31:24.520Z,978.12
2018-09-19T01:32:24.768Z,978.09
2018-09-19T01:33:25.005Z,978.12
2018-09-19T01:34:25.255Z,978.11
2018-09-19T01:35:25.491Z,978.09
2018-09-19T01:36:25.728Z,978.12
2018-09-19T01:37:26.024Z,978.15
2018-09-19T01:38:26.210Z,978.17
2018-09-19T01:39:26.453Z,978.16
2018-09-19T01:40:26.698Z,978.18
2018-09-19T01:41:26.937Z,978.20
2018-09-19T01:42:27.179Z,978.22
2018-09-19T01:43:27.420Z,978.19
2018-09-19T01:44:27.666Z,978.19
2018-09-19T01:45:27.907Z,978.18
2018-09-19T01:46:28.147Z,978.18
2018-09-19T01:47:28.389Z,978.19
2018-09-19T01:48:28.632Z,978.18
2018-09-19T01:49:28.873Z,978.20
2018-09-19T01:50:29.117Z,978.22
2018-09-19T01:51:29.358Z,978.19
2018-09-19T01:52:29.601Z,978.20
2018-09-19T01:53:29.845Z,978.24
2018-09-19T01:54:30.085Z,978.22
2018-09-19T01:55:30.330Z,978.28
2018-09-19T01:56:30.571Z,978.32
2018-09-19T01:57:30.809Z,978.27
2018-09-19T01:58:31.054Z,978.29
2018-09-19T01:59:31.299Z,978.26
2018-09-19T02:00:31.538Z,978.26
2018-09-19T02:01:31.782Z,978.27
2018-09-19T02:02:32.021Z,978.26
2018-09-19T02:03:32.277Z,978.30
2018-09-19T02:04:32.509Z,978.33
2018-09-19T02:05:32.750Z,978.33
2018-09-19T02:06:32.993Z,978.36
2018-09-19T02:07:33.237Z,978.37
2018-09-19T02:08:33.475Z,978.37
2018-09-19T02:09:33.716Z,978.42
2018-09-19T02:10:33.957Z,978.37
2018-09-19T02:11:34.199Z,978.41
2018-09-19T02:12:34.442Z,978.34
2018-09-19T02:13:34.685Z,978.38
2018-09-19T02:14:34.926Z,978.36
2018-09-19T02:15:35.169Z,978.39
2018-09-19T02:16:35.409Z,978.40
2018-09-19T02:17:35.651Z,978.43
2018-09-19T02:18:35.902Z,978.43
2018-09-19T02:19:36.135Z,978.38
2018-09-19T02:20:36.381Z,978.41
2018-09-19T02:21:36.619Z,978.41
2018-09-19T02:22:36.865Z,978.38
2018-09-19T02:23:37.099Z,978.37
2018-09-19T02:24:37.337Z,978.38
2018-09-19T02:25:37.577Z,978.38
2018-09-19T02:26:37.821Z,978.40
2018-09-19T02:27:38.062Z,978.42
2018-09-19T02:28:38.330Z,978.41
2018-09-19T02:29:38.546Z,978.45
2018-09-19T02:30:38.786Z,978.43
2018-09-19T02:31:39.028Z,978.44
2018-09-19T02:32:39.269Z,978.42
2018-09-19T02:33:39.508Z,978.44
2018-09-19T02:34:39.749Z,978.46
2018-09-19T02:35:39.989Z,978.46
2018-09-19T02:36:40.235Z,978.45
2018-09-19T02:37:40.476Z,978.49
2018-09-19T02:38:40.712Z,978.51
2018-09-19T02:39:40.957Z,978.50
2018-09-19T02:40:41.193Z,978.50
2018-09-19T02:41:41.429Z,978.49
2018-09-19T02:42:41.671Z,978.49
2018-09-19T02:43:41.910Z,978.47
2018-09-19T02:44:42.152Z,978.46
2018-09-19T02:45:42.394Z,978.45
2018-09-19T02:46:42.654Z,978.40
2018-09-19T02:47:42.881Z,978.40
2018-09-19T02:48:43.117Z,978.41
2018-09-19T02:49:43.356Z,978.40
2018-09-19T02:50:43.596Z,978.41
2018-09-19T02:51:43.841Z,978.43
2018-09-19T02:52:44.079Z,978.44
2018-09-19T02:53:44.343Z,978.41
2018-09-19T02:54:44.568Z,978.47
2018-09-19T02:55:44.804Z,978.45
2018-09-19T02:56:45.042Z,978.49
2018-09-19T02:57:45.279Z,978.53
2018-09-19T02:58:45.520Z,978.51
2018-09-19T02:59:45.762Z,978.54
2018-09-19T03:00:46.015Z,978.49
2018-09-19T03:01:46.239Z,978.50
2018-09-19T03:02:46.485Z,978.54
2018-09-19T03:03:46.730Z,978.51
2018-09-19T03:04:46.990Z,978.52
2018-09-19T03:05:47.210Z,978.50
2018-09-19T03:06:47.451Z,978.48
2018-09-19T03:07:47.691Z,978.51
2018-09-19T03:08:47.935Z,978.54
2018-09-19T03:09:48.175Z,978.54
2018-09-19T03:10:48.416Z,978.55
2018-09-19T03:11:48.658Z,978.58
2018-09-19T03:12:48.896Z,978.57
2018-09-19T03:13:49.136Z,978.59
2018-09-19T03:14:49.380Z,978.61
2018-09-19T03:15:49.619Z,978.62
2018-09-19T03:19:01.677Z,978.63
2018-09-19T03:20:01.933Z,978.66
2018-09-19T03:21:02.158Z,978.67
2018-09-19T03:22:02.398Z,978.65
2018-09-19T03:23:02.638Z,978.67
2018-09-19T03:24:02.877Z,978.59
2018-09-19T03:25:03.117Z,978.60
2018-09-19T03:26:03.362Z,978.60
2018-09-19T03:27:03.600Z,978.59
2018-09-19T03:28:03.841Z,978.58
2018-09-19T03:29:04.083Z,978.57
2018-09-19T03:30:04.324Z,978.57
2018-09-19T03:31:04.575Z,978.55
2018-09-19T03:32:04.806Z,978.61
2018-09-19T03:33:05.048Z,978.59
2018-09-19T03:34:05.288Z,978.62
2018-09-19T03:35:05.531Z,978.58
2018-09-19T03:36:05.771Z,978.62
2018-09-19T03:37:06.009Z,978.63
2018-09-19T03:38:06.249Z,978.64
2018-09-19T03:39:06.491Z,978.64
2018-09-19T03:40:06.735Z,978.66
2018-09-19T03:41:06.973Z,978.68
2018-09-19T03:42:07.212Z,978.68
2018-09-19T03:43:07.458Z,978.68
2018-09-19T03:44:07.690Z,978.70
2018-09-19T03:45:07.931Z,978.73
2018-09-19T03:46:08.174Z,978.70
2018-09-19T03:47:08.415Z,978.72
2018-09-19T03:48:08.656Z,978.68
2018-09-19T03:49:08.900Z,978.70
2018-09-19T03:50:09.140Z,978.68
2018-09-19T03:51:09.381Z,978.68
2018-09-19T03:52:09.623Z,978.64
2018-09-19T03:53:09.863Z,978.58
2018-09-19T03:54:10.104Z,978.66
2018-09-19T03:55:10.345Z,978.61
2018-09-19T03:56:10.588Z,978.64
2018-09-19T03:57:10.829Z,978.61
2018-09-19T03:58:11.125Z,978.61
2018-09-19T03:59:11.313Z,978.65
2018-09-19T04:00:11.569Z,978.68
2018-09-19T04:01:11.797Z,978.68
2018-09-19T04:02:12.035Z,978.69
2018-09-19T04:03:12.276Z,978.64
2018-09-19T04:04:12.516Z,978.69
2018-09-19T04:05:12.758Z,978.72
2018-09-19T04:06:12.999Z,978.72
2018-09-19T04:07:13.241Z,978.68
2018-09-19T04:08:13.483Z,978.67
2018-09-19T04:09:13.724Z,978.66
2018-09-19T04:10:13.964Z,978.66
2018-09-19T04:11:14.207Z,978.63
2018-09-19T04:12:14.451Z,978.63
2018-09-19T04:13:14.693Z,978.66
2018-09-19T04:14:14.933Z,978.67
2018-09-19T04:15:15.175Z,978.69
2018-09-19T04:16:15.414Z,978.70
2018-09-19T04:17:15.660Z,978.68
2018-09-19T04:18:15.899Z,978.69
2018-09-19T04:19:16.230Z,978.75
2018-09-19T04:20:16.375Z,978.75
2018-09-19T04:21:16.614Z,978.78
2018-09-19T04:22:16.854Z,978.76
2018-09-19T04:23:17.096Z,978.71
2018-09-19T04:24:17.334Z,978.82
2018-09-19T04:25:17.575Z,978.81
2018-09-19T04:26:17.814Z,978.82
2018-09-19T04:27:18.057Z,978.84
2018-09-19T04:28:18.295Z,978.86
2018-09-19T04:29:18.534Z,978.89
2018-09-19T04:30:18.777Z,978.94
2018-09-19T04:31:19.016Z,978.91
2018-09-19T04:32:19.329Z,978.91
2018-09-19T04:33:19.498Z,978.88
2018-09-19T04:34:19.741Z,978.90
2018-09-19T04:35:19.981Z,978.83
2018-09-19T04:36:20.218Z,978.78
2018-09-19T04:37:20.462Z,978.78
2018-09-19T04:38:20.701Z,978.83
2018-09-19T04:39:20.931Z,978.82
2018-09-19T04:40:21.181Z,978.85
2018-09-19T04:41:21.416Z,978.95
2018-09-19T04:42:21.665Z,978.93
2018-09-19T04:43:21.902Z,978.95
2018-09-19T04:44:22.136Z,978.97
2018-09-19T04:45:22.379Z,978.95
2018-09-19T04:46:22.619Z,978.95
2018-09-19T04:47:23.033Z,978.96
2018-09-19T04:48:23.287Z,978.98
2018-09-19T04:49:23.507Z,979.02
2018-09-19T04:50:23.747Z,979.02
2018-09-19T04:51:24.003Z,979.03
2018-09-19T04:52:24.224Z,979.01
2018-09-19T04:53:24.465Z,979.05
2018-09-19T04:54:24.696Z,979.06
2018-09-19T04:55:24.952Z,979.02
2018-09-19T04:56:25.197Z,979.03
2018-09-19T04:57:25.438Z,978.98
2018-09-19T04:58:25.660Z,978.98
2018-09-19T04:59:25.905Z,978.99
2018-09-19T05:00:26.169Z,979.01
2018-09-19T05:01:26.388Z,979.02
2018-09-19T05:02:26.628Z,979.05
2018-09-19T05:03:26.871Z,979.05
2018-09-19T05:04:27.110Z,979.10
2018-09-19T05:05:27.356Z,979.10
2018-09-19T05:06:27.622Z,979.09
2018-09-19T05:07:27.957Z,979.09
2018-09-19T05:08:28.201Z,979.11
2018-09-19T05:09:28.595Z,979.13
2018-09-19T05:10:28.853Z,979.15
2018-09-19T05:11:29.135Z,979.18
2018-09-19T05:12:29.331Z,979.17
2018-09-19T05:13:29.569Z,979.19
2018-09-19T05:14:29.810Z,979.18
2018-09-19T05:15:30.062Z,979.16
2018-09-19T05:16:30.291Z,979.18
2018-09-19T05:17:30.555Z,979.22
2018-09-19T05:18:30.799Z,979.23
2018-09-19T05:19:31.051Z,979.21
2018-09-19T05:20:31.299Z,979.23
2018-09-19T05:21:31.538Z,979.28
2018-09-19T05:22:31.779Z,979.29
2018-09-19T05:23:32.018Z,979.30
2018-09-19T05:24:32.261Z,979.31
2018-09-19T05:25:32.504Z,979.32
2018-09-19T05:26:32.741Z,979.34
2018-09-19T05:27:32.984Z,979.33
2018-09-19T05:28:33.227Z,979.37
2018-09-19T05:29:33.469Z,979.39
2018-09-19T05:30:33.708Z,979.35
2018-09-19T05:31:33.958Z,979.38
2018-09-19T05:32:34.191Z,979.42
2018-09-19T05:33:34.430Z,979.43
2018-09-19T05:34:34.668Z,979.43
2018-09-19T05:35:34.909Z,979.41
2018-09-19T05:36:35.148Z,979.44
2018-09-19T05:37:35.394Z,979.44
2018-09-19T05:38:35.632Z,979.47
2018-09-19T05:39:35.874Z,979.47
2018-09-19T05:40:36.110Z,979.49
2018-09-19T05:41:36.353Z,979.52
2018-09-19T05:42:36.594Z,979.52
2018-09-19T05:43:36.834Z,979.49
2018-09-19T05:44:37.075Z,979.49
2018-09-19T05:45:37.313Z,979.51
2018-09-19T05:46:37.634Z,979.54
2018-09-19T05:47:37.795Z,979.52
2018-09-19T05:48:38.038Z,979.52
2018-09-19T05:49:38.305Z,979.53
2018-09-19T05:50:38.516Z,979.52
2018-09-19T05:51:38.757Z,979.53
2018-09-19T05:52:39.003Z,979.56
2018-09-19T05:53:39.237Z,979.54
2018-09-19T05:54:39.552Z,979.54
2018-09-19T05:55:39.719Z,979.53
2018-09-19T05:56:39.962Z,979.54
2018-09-19T05:57:40.203Z,979.55
2018-09-19T05:58:40.441Z,979.58
2018-09-19T05:59:40.684Z,979.58
2018-09-19T06:00:40.923Z,979.62
2018-09-19T06:01:41.168Z,979.61
2018-09-19T06:02:41.405Z,979.67
2018-09-19T06:03:41.654Z,979.62
2018-09-19T06:04:41.916Z,979.64
2018-09-19T06:05:42.132Z,979.64
2018-09-19T06:06:42.374Z,979.59
2018-09-19T06:07:42.618Z,979.59
2018-09-19T06:08:42.860Z,979.57
2018-09-19T06:09:43.096Z,979.61
2018-09-19T06:10:43.342Z,979.64
2018-09-19T06:11:43.583Z,979.64
2018-09-19T06:12:43.841Z,979.66
2018-09-19T06:13:44.069Z,979.68
2018-09-19T06:14:44.308Z,979.69
2018-09-19T06:15:44.557Z,979.71
2018-09-19T06:16:44.790Z,979.72
2018-09-19T06:17:45.034Z,979.74
2018-09-19T06:18:45.276Z,979.77
2018-09-19T06:19:45.517Z,979.80
2018-09-19T06:20:45.762Z,979.80
2018-09-19T06:21:46.008Z,979.83
2018-09-19T06:22:46.245Z,979.84
2018-09-19T06:23:46.536Z,979.89
2018-09-19T06:24:46.731Z,979.86
2018-09-19T06:25:46.972Z,979.88
2018-09-19T06:26:47.244Z,979.86
2018-09-19T06:27:47.458Z,979.89
2018-09-19T06:28:47.697Z,979.82
2018-09-19T06:29:47.942Z,979.87
2018-09-19T06:30:48.186Z,979.80
2018-09-19T06:31:48.429Z,979.84
2018-09-19T06:32:48.737Z,979.88
2018-09-19T06:33:48.915Z,979.92
2018-09-19T06:34:49.159Z,979.92
2018-09-19T06:35:49.406Z,979.92
2018-09-19T06:36:49.650Z,979.97
2018-09-19T06:37:49.891Z,979.96
2018-09-19T06:38:50.136Z,979.99
2018-09-19T06:39:50.391Z,979.97
2018-09-19T06:40:50.658Z,979.99
2018-09-19T06:41:50.869Z,980.00
2018-09-19T06:42:51.120Z,979.99
2018-09-19T06:43:51.365Z,980.01
2018-09-19T06:44:51.610Z,980.02
2018-09-19T06:45:51.860Z,980.04
2018-09-19T06:46:52.164Z,980.05
2018-09-19T06:47:52.349Z,980.07
2018-09-19T06:48:52.602Z,980.10
2018-09-19T06:49:52.843Z,980.14
2018-09-19T06:50:53.091Z,980.12
2018-09-19T06:51:53.402Z,980.11
2018-09-19T06:52:53.582Z,980.11
2018-09-19T06:53:53.830Z,980.09
2018-09-19T06:54:54.075Z,980.09
2018-09-19T06:55:54.323Z,980.08
2018-09-19T06:56:54.571Z,980.13
2018-09-19T06:57:54.818Z,980.15
2018-09-19T06:58:55.070Z,980.12
2018-09-19T06:59:55.313Z,980.15
2018-09-19T07:00:55.563Z,980.14
2018-09-19T07:01:55.810Z,980.14
2018-09-19T07:02:56.056Z,980.16
2018-09-19T07:03:56.305Z,980.13
2018-09-19T07:04:56.552Z,980.10
2018-09-19T07:05:56.853Z,980.17
2018-09-19T07:06:57.048Z,980.16
2018-09-19T07:07:57.295Z,980.20
2018-09-19T07:08:57.542Z,980.12
2018-09-19T07:09:57.789Z,980.20
2018-09-19T07:10:58.038Z,980.28
2018-09-19T07:11:58.289Z,980.24
2018-09-19T07:12:58.535Z,980.21
2018-09-19T07:13:58.783Z,980.23
2018-09-19T07:14:59.030Z,980.23
2018-09-19T07:15:59.279Z,980.27
2018-09-19T07:16:59.537Z,980.28
2018-09-19T07:17:59.777Z,980.27
2018-09-19T07:19:00.092Z,980.18
2018-09-19T07:20:00.277Z,980.20
2018-09-19T07:21:00.521Z,980.21
2018-09-19T07:22:00.770Z,980.36
2018-09-19T07:23:01.018Z,980.35
2018-09-19T07:24:01.269Z,980.38
2018-09-19T07:25:01.561Z,980.40
2018-09-19T07:26:01.770Z,980.29
2018-09-19T07:27:02.013Z,980.28
2018-09-19T07:28:02.260Z,980.23
2018-09-19T07:29:02.512Z,980.20
2018-09-19T07:30:02.758Z,980.22
2018-09-19T07:31:03.024Z,980.20
2018-09-19T07:32:03.258Z,980.23
2018-09-19T07:33:03.505Z,980.20
2018-09-19T07:34:03.754Z,980.22
2018-09-19T07:35:04.007Z,980.23
2018-09-19T07:36:04.251Z,980.19
2018-09-19T07:37:04.501Z,980.27
2018-09-19T07:38:04.748Z,980.46
2018-09-19T07:39:05.000Z,980.47
2018-09-19T07:40:05.294Z,980.47
2018-09-19T07:41:05.498Z,980.52
2018-09-19T07:42:05.746Z,980.51
2018-09-19T07:43:05.993Z,980.51
2018-09-19T07:44:06.243Z,980.49
2018-09-19T07:45:06.490Z,980.48
2018-09-19T07:46:06.737Z,980.49
2018-09-19T07:47:06.990Z,980.51
2018-09-19T07:48:07.235Z,980.57
2018-09-19T07:49:07.486Z,980.57
2018-09-19T07:50:07.734Z,980.58
2018-09-19T07:51:07.983Z,980.62
2018-09-19T07:52:08.236Z,980.62
2018-09-19T07:53:08.486Z,980.61
2018-09-19T07:54:08.735Z,980.64
2018-09-19T07:55:09.006Z,980.60
2018-09-19T07:56:09.236Z,980.59
2018-09-19T07:57:09.508Z,980.67
2018-09-19T07:58:09.736Z,980.63
2018-09-19T07:59:09.978Z,980.62
2018-09-19T08:00:10.241Z,980.65
2018-09-19T08:01:10.508Z,980.67
2018-09-19T08:02:10.740Z,980.69
2018-09-19T08:03:11.013Z,980.80
2018-09-19T08:04:11.237Z,980.82
2018-09-19T08:05:11.488Z,980.84
2018-09-19T08:06:11.735Z,980.90
2018-09-19T08:07:11.987Z,980.95
2018-09-19T08:08:12.243Z,980.95
2018-09-19T08:09:12.523Z,980.89
2018-09-19T08:10:12.746Z,980.84
2018-09-19T08:11:12.998Z,980.79
2018-09-19T08:12:13.244Z,980.85
2018-09-19T08:13:13.499Z,980.84
2018-09-19T08:14:13.773Z,980.85
2018-09-19T08:15:13.995Z,980.84
2018-09-19T08:16:14.249Z,980.86
2018-09-19T08:17:14.500Z,980.88
2018-09-19T08:18:14.749Z,980.91
2018-09-19T08:19:15.003Z,980.88
2018-09-19T08:20:15.248Z,980.88
2018-09-19T08:21:15.503Z,980.88
2018-09-19T08:22:15.752Z,980.91
2018-09-19T08:23:16.008Z,980.93
2018-09-19T08:24:16.258Z,980.94
2018-09-19T08:25:16.516Z,980.96
2018-09-19T08:26:16.763Z,980.98
2018-09-19T08:27:17.022Z,980.92
2018-09-19T08:28:17.263Z,980.84
2018-09-19T08:29:17.514Z,980.94
2018-09-19T08:30:17.769Z,980.95
2018-09-19T08:31:18.016Z,980.92
2018-09-19T08:32:18.267Z,980.93
2018-09-19T08:33:18.518Z,981.01
2018-09-19T08:34:18.770Z,981.03
2018-09-19T08:35:19.048Z,981.07
2018-09-19T08:36:19.270Z,981.07
2018-09-19T08:37:19.522Z,981.07
2018-09-19T08:38:19.770Z,980.99
2018-09-19T08:39:20.020Z,981.04
2018-09-19T08:40:20.271Z,981.08
2018-09-19T08:41:20.522Z,981.10
2018-09-19T08:42:20.772Z,981.08
2018-09-19T08:43:21.027Z,981.27
2018-09-19T08:44:21.277Z,981.57
2018-09-19T08:45:21.532Z,981.71
2018-09-19T08:46:21.781Z,981.83
2018-09-19T08:47:22.034Z,981.84
2018-09-19T08:48:22.285Z,981.91
2018-09-19T08:49:22.546Z,981.98
2018-09-19T08:50:22.852Z,981.82
2018-09-19T08:51:23.043Z,981.76
2018-09-19T08:52:23.299Z,981.77
2018-09-19T08:53:23.550Z,981.80
2018-09-19T08:54:23.802Z,981.84
2018-09-19T08:55:24.056Z,981.81
2018-09-19T08:56:24.308Z,981.79
2018-09-19T08:57:24.560Z,981.70
2018-09-19T08:58:24.816Z,981.67
2018-09-19T08:59:25.069Z,981.65
2018-09-19T09:00:25.324Z,981.57
2018-09-19T09:01:25.581Z,981.53
2018-09-19T09:02:25.833Z,981.53
2018-09-19T09:03:26.085Z,981.47
2018-09-19T09:04:26.338Z,981.44
2018-09-19T09:05:26.675Z,981.45
2018-09-19T09:06:26.835Z,981.34
2018-09-19T09:07:27.087Z,981.39
2018-09-19T09:08:27.341Z,981.37
2018-09-19T09:09:27.595Z,981.20
2018-09-19T09:10:27.850Z,981.25
2018-09-19T09:11:28.106Z,981.26
2018-09-19T09:12:28.364Z,981.26
2018-09-19T09:13:28.623Z,981.21
2018-09-19T09:14:28.864Z,981.24
2018-09-19T09:15:29.118Z,981.27
2018-09-19T09:16:29.377Z,981.25
2018-09-19T09:17:29.624Z,981.24
2018-09-19T09:18:29.874Z,981.28
2018-09-19T09:19:30.128Z,981.32
2018-09-19T09:20:30.414Z,981.35
2018-09-19T09:21:30.636Z,981.38
2018-09-19T09:22:30.889Z,981.40
2018-09-19T09:23:31.145Z,981.47
2018-09-19T09:24:31.399Z,981.49
2018-09-19T09:25:31.648Z,981.50
2018-09-19T09:26:31.903Z,981.56
2018-09-19T09:27:32.154Z,981.46
2018-09-19T09:28:32.407Z,981.56
2018-09-19T09:29:32.659Z,981.59
2018-09-19T09:30:32.916Z,981.51
2018-09-19T09:31:33.168Z,981.52
2018-09-19T09:32:33.424Z,981.48
2018-09-19T09:33:33.674Z,981.47
2018-09-19T09:34:33.930Z,981.43
2018-09-19T09:35:34.184Z,981.43
2018-09-19T09:36:34.477Z,981.36
2018-09-19T09:37:34.692Z,981.44
2018-09-19T09:38:34.944Z,981.45
2018-09-19T09:39:35.202Z,981.40
2018-09-19T09:40:35.523Z,981.43
2018-09-19T09:41:35.709Z,981.36
2018-09-19T09:42:35.965Z,981.40
2018-09-19T09:43:36.253Z,981.40
2018-09-19T09:44:36.476Z,981.37
2018-09-19T09:45:36.729Z,981.31
2018-09-19T09:46:36.983Z,981.32
2018-09-19T09:47:37.231Z,981.33
2018-09-19T09:48:37.488Z,981.27
2018-09-19T09:49:37.741Z,981.30
2018-09-19T09:50:37.999Z,981.33
2018-09-19T09:51:38.315Z,981.38
2018-09-19T09:52:38.505Z,981.33
2018-09-19T09:53:38.766Z,981.34
2018-09-19T09:54:39.016Z,981.32
2018-09-19T09:55:39.270Z,981.25
2018-09-19T09:56:39.527Z,981.31
2018-09-19T09:57:39.785Z,981.32
2018-09-19T09:58:40.040Z,981.31
2018-09-19T09:59:40.295Z,981.30
2018-09-19T10:00:40.552Z,981.27
2018-09-19T10:01:40.803Z,981.25
2018-09-19T10:02:41.059Z,981.26
2018-09-19T10:03:41.318Z,981.16
2018-09-19T10:04:41.569Z,981.04
2018-09-19T10:05:41.825Z,980.93
2018-09-19T10:06:42.082Z,980.82
2018-09-19T10:07:42.336Z,980.81
2018-09-19T10:08:42.591Z,980.87
2018-09-19T10:09:42.846Z,980.82
2018-09-19T10:10:43.103Z,980.82
2018-09-19T10:11:43.363Z,980.78
2018-09-19T10:12:43.618Z,980.76
2018-09-19T10:13:43.924Z,980.75
2018-09-19T10:14:44.129Z,980.78
2018-09-19T10:15:44.387Z,980.83
2018-09-19T10:16:44.645Z,980.73
2018-09-19T10:17:44.894Z,980.73
2018-09-19T10:18:45.151Z,980.72
2018-09-19T10:19:45.403Z,980.72
2018-09-19T10:20:45.660Z,980.70
2018-09-19T10:21:45.914Z,980.80
2018-09-19T10:22:46.168Z,980.72
2018-09-19T10:23:46.422Z,980.67
2018-09-19T10:24:46.676Z,980.67
2018-09-19T10:25:46.931Z,980.78
2018-09-19T10:26:47.186Z,980.64
2018-09-19T10:27:47.441Z,980.72
2018-09-19T10:28:47.697Z,980.75
2018-09-19T10:29:47.952Z,980.97
2018-09-19T10:30:48.205Z,981.25
2018-09-19T10:31:48.459Z,981.28
2018-09-19T10:32:48.714Z,981.31
2018-09-19T10:33:48.968Z,981.34
2018-09-19T10:34:49.224Z,981.37
2018-09-19T10:35:49.485Z,981.34
2018-09-19T10:36:49.736Z,981.32
2018-09-19T10:37:49.992Z,981.47
2018-09-19T10:38:50.249Z,981.40
2018-09-19T10:39:50.503Z,981.47
2018-09-19T10:40:50.758Z,981.55
2018-09-19T10:41:51.013Z,981.52
2018-09-19T10:42:51.268Z,981.49
2018-09-19T10:43:51.582Z,981.43
2018-09-19T10:44:51.779Z,981.44
2018-09-19T10:45:52.034Z,981.40
2018-09-19T10:46:52.293Z,981.36
2018-09-19T10:47:52.543Z,981.28
2018-09-19T10:48:52.795Z,981.33
2018-09-19T10:49:53.054Z,981.32
2018-09-19T10:50:53.306Z,981.35
2018-09-19T10:51:53.560Z,981.31
2018-09-19T10:52:53.813Z,981.37
2018-09-19T10:53:54.076Z,981.41
2018-09-19T10:54:54.325Z,981.30
2018-09-19T10:55:54.579Z,981.26
2018-09-19T10:56:54.870Z,981.29
2018-09-19T10:57:55.089Z,981.24
2018-09-19T10:58:55.345Z,981.30
2018-09-19T10:59:55.602Z,981.21
2018-09-19T11:00:55.860Z,981.25
2018-09-19T11:01:56.112Z,981.24
2018-09-19T11:02:56.369Z,981.21
2018-09-19T11:03:56.641Z,981.18
2018-09-19T11:04:56.879Z,981.30
2018-09-19T11:05:57.136Z,981.24
2018-09-19T11:06:57.395Z,981.15
2018-09-19T11:07:57.653Z,981.26
2018-09-19T11:08:57.912Z,980.34
2018-09-19T11:09:58.171Z,980.32
2018-09-19T11:10:58.430Z,980.21
2018-09-19T11:11:58.687Z,980.20
2018-09-19T11:12:58.944Z,980.12
2018-09-19T11:13:59.198Z,980.07
2018-09-19T11:14:59.454Z,980.14
2018-09-19T11:15:59.710Z,980.54
2018-09-19T11:16:59.979Z,980.80
2018-09-19T11:18:00.219Z,980.97
2018-09-19T11:19:00.474Z,980.83
2018-09-19T11:20:00.733Z,980.70
2018-09-19T11:21:00.984Z,980.62
2018-09-19T11:22:01.238Z,980.70
2018-09-19T11:23:01.491Z,980.51
2018-09-19T11:24:01.745Z,980.64
2018-09-19T11:25:02.001Z,980.78
2018-09-19T11:26:02.255Z,980.53
2018-09-19T11:27:02.508Z,980.57
2018-09-19T11:28:02.762Z,980.68
2018-09-19T11:29:03.018Z,980.78
2018-09-19T11:30:03.274Z,980.86
2018-09-19T11:31:03.532Z,980.93
2018-09-19T11:32:03.788Z,980.72
2018-09-19T11:33:04.044Z,980.51
2018-09-19T11:34:04.298Z,980.45
2018-09-19T11:35:04.552Z,980.29
2018-09-19T11:36:04.809Z,980.23
2018-09-19T11:37:05.071Z,980.29
2018-09-19T11:38:05.320Z,980.23
2018-09-19T11:39:05.576Z,980.20
2018-09-19T11:40:05.831Z,980.33
2018-09-19T11:41:06.102Z,980.21
2018-09-19T11:42:06.356Z,980.19
2018-09-19T11:43:06.614Z,980.14
2018-09-19T11:44:06.907Z,980.29
2018-09-19T11:45:07.162Z,980.18
2018-09-19T11:46:07.418Z,980.22
2018-09-19T11:47:07.674Z,980.20
2018-09-19T11:48:07.926Z,980.21
2018-09-19T11:49:08.183Z,980.20
2018-09-19T11:50:08.434Z,980.24
2018-09-19T11:51:08.687Z,980.21
2018-09-19T11:52:08.942Z,980.21
2018-09-19T11:53:09.199Z,980.18
2018-09-19T11:54:09.454Z,980.37
2018-09-19T11:55:09.711Z,980.22
2018-09-19T11:56:09.966Z,980.02
2018-09-19T11:57:10.221Z,979.77
2018-09-19T11:58:10.524Z,979.85
2018-09-19T11:59:10.733Z,980.15
2018-09-19T12:00:10.992Z,980.11
2018-09-19T12:01:11.243Z,980.10
2018-09-19T12:02:11.501Z,980.09
2018-09-19T12:03:11.756Z,980.03
2018-09-19T12:04:12.012Z,980.03
2018-09-19T12:05:12.273Z,980.00
2018-09-19T12:06:12.522Z,980.09
2018-09-19T12:07:12.827Z,979.97
2018-09-19T12:08:13.033Z,980.12
2018-09-19T12:09:13.323Z,980.05
2018-09-19T12:10:13.547Z,980.06
2018-09-19T12:11:13.809Z,979.84
2018-09-19T12:12:14.060Z,979.99
2018-09-19T12:13:14.315Z,979.96
2018-09-19T12:14:14.570Z,980.10
2018-09-19T12:15:14.827Z,980.11
2018-09-19T12:16:15.083Z,979.98
2018-09-19T12:17:15.341Z,980.11
2018-09-19T12:18:15.597Z,980.10
2018-09-19T12:19:15.855Z,979.94
2018-09-19T12:20:16.114Z,979.82
2018-09-19T12:21:16.368Z,979.62
2018-09-19T12:22:16.626Z,979.92
2018-09-19T12:23:16.885Z,979.95
2018-09-19T12:24:17.139Z,979.85
2018-09-19T12:25:17.394Z,979.77
2018-09-19T12:26:17.678Z,979.74
2018-09-19T12:27:17.909Z,980.03
2018-09-19T12:28:18.166Z,980.00
2018-09-19T12:29:18.420Z,979.94
2018-09-19T12:30:18.679Z,979.95
2018-09-19T12:31:18.929Z,979.95
2018-09-19T12:32:19.186Z,980.01
2018-09-19T12:33:19.496Z,979.92